createdAt,value
2023-01-30T01:30:47.091Z,84.04
2023-01-30T01:33:15.276Z,84.27
2023-01-30T01:35:43.067Z,84.72
2023-01-30T01:38:10.750Z,84.07
2023-01-30T01:40:58.949Z,83.73
2023-01-30T01:43:26.640Z,83.22
2023-01-30T01:45:57.289Z,82.90
2023-01-30T01:48:29.421Z,82.38
2023-01-30T01:51:09.953Z,82.93
2023-01-30T01:53:42.648Z,82.05
2023-01-30T01:56:10.378Z,82.48
2023-01-30T01:58:42.930Z,82.46
2023-01-30T02:01:10.716Z,82.61
2023-01-30T02:03:41.840Z,82.61
2023-01-30T02:06:09.623Z,83.43
2023-01-30T02:08:40.241Z,82.95
2023-01-30T02:11:43.095Z,83.45
2023-01-30T02:14:11.644Z,83.00
2023-01-30T02:16:39.368Z,83.16
2023-01-30T02:19:21.640Z,83.51
2023-01-30T02:22:15.462Z,83.70
2023-01-30T02:25:21.397Z,84.69
2023-01-30T02:28:24.230Z,84.27
2023-01-30T02:31:22.832Z,84.34
2023-01-30T02:34:05.703Z,85.51
2023-01-30T02:36:40.893Z,86.70
2023-01-30T02:39:38.590Z,86.86
2023-01-30T02:42:15.986Z,86.97
2023-01-30T02:44:59.319Z,86.88
2023-01-30T02:47:37.484Z,87.00
2023-01-30T02:50:42.362Z,87.61
2023-01-30T02:53:11.030Z,87.66
2023-01-30T02:55:40.379Z,87.96
2023-01-30T02:58:08.075Z,88.46
2023-01-30T03:00:51.258Z,89.06
2023-01-30T03:03:44.156Z,88.74
2023-01-30T03:06:38.613Z,89.30
2023-01-30T03:09:45.574Z,89.51
2023-01-30T03:12:18.521Z,89.18
2023-01-30T03:14:59.597Z,89.30
2023-01-30T03:17:27.419Z,88.77
2023-01-30T03:19:55.498Z,88.70
2023-01-30T03:22:23.899Z,88.32
2023-01-30T03:24:53.098Z,88.74
2023-01-30T03:27:20.934Z,89.18
2023-01-30T03:29:49.952Z,88.96
2023-01-30T03:32:17.875Z,88.62
2023-01-30T03:34:46.010Z,89.02
2023-01-30T03:37:16.641Z,89.22
2023-01-30T03:39:44.603Z,88.82
2023-01-30T03:42:16.207Z,88.99
2023-01-30T03:44:44.185Z,88.59
2023-01-30T03:47:12.324Z,88.24
2023-01-30T03:49:40.917Z,89.68
2023-01-30T03:52:08.887Z,89.43
2023-01-30T03:54:36.777Z,89.78
2023-01-30T03:57:06.028Z,89.59
2023-01-30T03:59:34.562Z,89.62
2023-01-30T04:02:07.298Z,89.31
2023-01-30T04:04:35.431Z,89.08
2023-01-30T04:07:05.923Z,88.53
2023-01-30T04:09:37.994Z,88.92
2023-01-30T04:12:07.695Z,89.60
2023-01-30T04:14:41.165Z,89.53
2023-01-30T04:17:26.895Z,90.45
2023-01-30T04:20:13.350Z,90.00
2023-01-30T04:22:46.643Z,89.90
2023-01-30T04:25:16.603Z,90.90
2023-01-30T04:27:44.954Z,90.11
2023-01-30T04:30:19.463Z,90.13
2023-01-30T04:32:49.917Z,90.44
2023-01-30T04:35:18.505Z,90.17
2023-01-30T04:37:46.365Z,90.60
2023-01-30T04:40:20.575Z,91.83
2023-01-30T04:42:48.585Z,91.59
2023-01-30T04:45:54.592Z,91.20
2023-01-30T04:48:23.774Z,91.54
2023-01-30T04:50:53.719Z,91.83
2023-01-30T04:53:21.723Z,92.16
2023-01-30T04:55:49.935Z,92.48
2023-01-30T04:58:19.508Z,92.27
2023-01-30T05:00:47.613Z,92.02
2023-01-30T05:03:15.681Z,91.70
2023-01-30T05:05:43.624Z,92.83
2023-01-30T05:08:11.306Z,93.05
2023-01-30T05:10:39.093Z,92.93
2023-01-30T05:13:07.639Z,92.97
2023-01-30T05:15:35.639Z,92.78
2023-01-30T05:18:03.387Z,93.10
2023-01-30T05:20:31.158Z,92.89
2023-01-30T05:22:59.033Z,92.91
2023-01-30T05:25:26.764Z,93.19
2023-01-30T05:27:54.490Z,93.23
2023-01-30T05:30:22.168Z,93.67
2023-01-30T05:32:49.974Z,93.66
2023-01-30T05:35:17.864Z,93.41
2023-01-30T05:37:51.093Z,93.29
2023-01-30T05:40:18.725Z,93.16
2023-01-30T05:42:46.483Z,93.06
2023-01-30T05:45:15.608Z,93.16
2023-01-30T05:47:43.724Z,93.00
2023-01-30T05:50:12.073Z,92.59
2023-01-30T05:52:39.719Z,92.54
2023-01-30T05:55:07.754Z,92.91
2023-01-30T05:57:35.607Z,93.14
2023-01-30T06:00:04.962Z,93.62
2023-01-30T06:02:40.546Z,93.04
2023-01-30T06:05:09.024Z,93.36
2023-01-30T06:07:38.609Z,92.81
2023-01-30T06:10:07.094Z,92.76
2023-01-30T06:12:35.602Z,92.62
2023-01-30T06:15:03.871Z,92.30
2023-01-30T06:17:34.383Z,91.64
2023-01-30T06:20:02.629Z,91.74
2023-01-30T06:22:31.316Z,91.19
2023-01-30T06:24:59.280Z,90.80
2023-01-30T06:27:28.183Z,90.23
2023-01-30T06:29:56.055Z,90.00
2023-01-30T06:32:23.924Z,89.80
2023-01-30T06:34:51.827Z,89.78
2023-01-30T06:37:20.178Z,88.81
2023-01-30T06:39:48.222Z,88.72
2023-01-30T06:42:15.974Z,89.12
2023-01-30T06:44:43.870Z,88.89
2023-01-30T06:47:12.440Z,88.16
2023-01-30T06:49:40.696Z,87.75
2023-01-30T06:52:08.731Z,87.92
2023-01-30T06:54:37.274Z,87.61
2023-01-30T06:57:05.035Z,87.71
2023-01-30T06:59:32.768Z,87.36
2023-01-30T07:02:00.531Z,87.13
2023-01-30T07:04:28.458Z,87.27
2023-01-30T07:06:57.316Z,86.22
2023-01-30T07:09:26.037Z,86.08
2023-01-30T07:11:55.225Z,85.59
2023-01-30T07:14:22.968Z,85.74
2023-01-30T07:16:50.752Z,85.32
2023-01-30T07:19:18.686Z,85.05
2023-01-30T07:21:46.479Z,84.42
2023-01-30T07:24:14.323Z,84.38
2023-01-30T07:26:42.626Z,84.05
2023-01-30T07:29:10.401Z,83.36
2023-01-30T07:31:38.713Z,83.54
2023-01-30T07:34:07.153Z,82.77
2023-01-30T07:36:35.915Z,82.68
2023-01-30T07:39:07.314Z,82.05
2023-01-30T07:41:38.785Z,81.55
2023-01-30T07:44:12.702Z,81.35
2023-01-30T07:46:42.917Z,79.94
2023-01-30T07:49:11.429Z,80.08
2023-01-30T07:51:39.993Z,79.41
2023-01-30T07:54:08.236Z,79.62
2023-01-30T07:56:37.618Z,78.91
2023-01-30T07:59:06.572Z,78.59
2023-01-30T08:01:35.550Z,78.29
2023-01-30T08:04:04.825Z,78.34
2023-01-30T08:06:39.410Z,77.87
2023-01-30T08:09:09.254Z,78.49
2023-01-30T08:11:41.344Z,77.91
2023-01-30T08:14:10.632Z,76.79
2023-01-30T08:16:42.423Z,76.00
2023-01-30T08:19:10.649Z,76.72
2023-01-30T08:21:38.756Z,76.88
2023-01-30T08:24:07.336Z,76.55
2023-01-30T08:26:35.343Z,75.53
2023-01-30T08:29:03.673Z,75.63
2023-01-30T11:22:39.252Z,60.63
2023-01-30T11:25:13.737Z,60.47
2023-01-30T11:27:42.348Z,61.50
2023-01-30T11:30:15.313Z,62.39
2023-01-30T11:32:44.040Z,60.15
2023-01-30T11:35:14.598Z,60.32
2023-01-30T11:37:43.709Z,59.71
2023-01-30T11:40:31.309Z,61.32
2023-01-30T11:43:06.115Z,59.03
2023-01-30T11:45:39.060Z,60.87
2023-01-30T11:48:33.187Z,61.15
2023-01-30T11:51:08.186Z,58.55
2023-01-30T11:53:45.220Z,58.14
2023-01-30T11:56:23.261Z,59.02
2023-01-30T11:59:01.224Z,59.87
2023-01-30T12:01:31.626Z,58.69
2023-01-30T12:03:59.500Z,58.68
2023-01-30T12:06:37.309Z,56.23
2023-01-30T12:09:05.314Z,56.10
2023-01-30T12:11:42.332Z,57.91
2023-01-30T12:14:40.521Z,55.48
2023-01-30T12:17:32.787Z,57.48
2023-01-30T12:20:20.439Z,58.00
2023-01-30T12:23:02.484Z,55.28
2023-01-30T12:25:37.329Z,56.65
2023-01-30T12:28:30.216Z,54.16
2023-01-30T12:31:08.920Z,53.28
2023-01-30T12:33:36.615Z,55.03
2023-01-30T12:36:13.105Z,55.69
2023-01-30T12:38:59.660Z,55.03
2023-01-30T12:41:36.066Z,54.06
2023-01-30T12:44:10.232Z,54.50
2023-01-30T12:46:51.445Z,55.12
2023-01-30T12:49:52.955Z,53.78
2023-01-30T12:52:39.192Z,53.60
2023-01-30T12:55:21.955Z,55.12
2023-01-30T12:58:11.739Z,54.47
2023-01-30T13:00:48.697Z,53.24
2023-01-30T13:03:34.940Z,52.38
2023-01-30T13:06:17.549Z,54.35
2023-01-30T13:09:06.210Z,53.60
2023-01-30T13:11:34.131Z,53.64
2023-01-30T13:14:14.203Z,53.32
2023-01-30T13:16:50.597Z,54.99
2023-01-30T13:19:41.051Z,56.08
2023-01-30T13:22:13.676Z,55.88
2023-01-30T13:24:54.587Z,57.19
2023-01-30T13:27:22.347Z,57.55
2023-01-30T13:29:53.866Z,58.09
2023-01-30T13:32:27.631Z,57.00
2023-01-30T13:34:57.070Z,56.69
2023-01-30T13:37:24.893Z,56.88
2023-01-30T13:39:58.805Z,57.70
2023-01-30T13:42:37.713Z,57.10
2023-01-30T13:45:05.828Z,58.25
2023-01-30T13:47:36.579Z,58.52
2023-01-30T13:50:31.081Z,60.10
2023-01-30T13:53:05.135Z,62.45
2023-01-30T13:55:44.983Z,61.93
2023-01-30T13:58:48.848Z,63.93
2023-01-30T14:01:16.608Z,64.90
2023-01-30T14:03:44.348Z,64.91
2023-01-30T14:06:30.161Z,66.03
2023-01-30T14:08:59.662Z,66.70
2023-01-30T14:11:51.698Z,67.32
2023-01-30T14:14:19.407Z,67.95
2023-01-30T14:16:51.769Z,68.51
2023-01-30T14:19:20.587Z,69.10
2023-01-30T14:21:58.758Z,68.65
2023-01-30T14:24:27.702Z,68.47
2023-01-30T14:26:58.259Z,69.50
2023-01-30T14:29:37.912Z,69.22
2023-01-30T14:32:14.767Z,69.49
2023-01-30T14:35:04.344Z,70.07
2023-01-30T14:37:39.439Z,70.37
2023-01-30T14:40:22.187Z,70.28
2023-01-30T14:43:20.725Z,71.35
2023-01-30T14:46:01.106Z,71.67
2023-01-30T14:48:32.178Z,72.74
2023-01-30T14:51:24.067Z,71.92
2023-01-30T14:54:20.654Z,73.00
2023-01-30T14:57:03.424Z,73.77
2023-01-30T15:00:03.209Z,73.55
2023-01-30T15:02:44.449Z,73.80
2023-01-30T15:05:14.803Z,74.16
2023-01-30T15:07:54.142Z,75.42
2023-01-30T15:10:52.835Z,75.54
2023-01-30T15:13:36.236Z,75.42
2023-01-30T15:16:43.547Z,74.94
2023-01-30T15:19:18.330Z,75.99
2023-01-30T15:21:58.000Z,76.01
2023-01-30T15:24:34.892Z,76.51
2023-01-30T15:27:09.710Z,76.45
2023-01-30T15:29:45.993Z,76.09
2023-01-30T15:32:21.528Z,76.39
2023-01-30T15:34:54.516Z,76.47
2023-01-30T15:37:35.372Z,77.88
2023-01-30T15:40:21.257Z,77.60
2023-01-30T15:43:09.112Z,78.87
2023-01-30T15:46:03.417Z,79.02
2023-01-30T15:48:39.361Z,79.16
2023-01-30T15:51:11.297Z,78.51
2023-01-30T15:53:43.693Z,78.49
2023-01-30T15:56:17.274Z,78.91
2023-01-30T15:58:44.859Z,79.23
2023-01-30T16:01:16.010Z,79.15
2023-01-30T16:03:43.754Z,78.80
2023-01-30T16:06:34.165Z,79.70
2023-01-30T16:09:20.537Z,79.29
2023-01-30T16:11:48.230Z,79.70
2023-01-30T16:14:17.165Z,80.23
2023-01-30T16:16:44.932Z,79.45
2023-01-30T16:19:29.724Z,80.47
2023-01-30T16:22:05.584Z,79.71
2023-01-30T16:24:34.466Z,79.78
2023-01-30T16:27:06.749Z,79.79
2023-01-30T16:29:50.719Z,80.58
2023-01-30T16:32:19.819Z,80.09
2023-01-30T16:34:48.048Z,80.13
2023-01-30T16:37:16.784Z,80.37
2023-01-30T16:39:46.579Z,80.07
2023-01-30T16:42:28.114Z,80.78
2023-01-30T16:45:10.873Z,81.05
2023-01-30T16:47:39.063Z,80.91
2023-01-30T16:50:18.372Z,82.19
2023-01-30T16:52:47.740Z,81.50
2023-01-30T16:55:28.201Z,81.62
2023-01-30T16:57:58.696Z,82.51
2023-01-30T17:00:35.461Z,81.95
2023-01-30T17:03:07.628Z,83.12
2023-01-30T17:05:40.989Z,82.71
2023-01-30T17:08:39.983Z,83.33
2023-01-30T17:11:07.625Z,83.71
2023-01-30T17:13:42.615Z,83.51
2023-01-30T17:16:22.448Z,83.60
2023-01-30T17:18:53.560Z,83.35
2023-01-30T17:21:21.839Z,84.04
2023-01-30T17:23:52.847Z,83.92
2023-01-30T17:26:21.726Z,83.82
2023-01-30T17:28:49.517Z,84.05
2023-01-30T17:31:17.353Z,84.27
2023-01-30T17:33:45.271Z,84.95
2023-01-30T17:36:25.513Z,85.19
2023-01-30T17:38:54.873Z,84.75
2023-01-30T17:41:25.758Z,84.71
2023-01-30T17:43:53.301Z,84.52
2023-01-30T17:46:23.487Z,85.06
2023-01-30T17:48:51.950Z,84.48
2023-01-30T17:51:19.602Z,84.06
2023-01-30T17:53:47.419Z,83.48
2023-01-30T17:56:29.377Z,83.65
2023-01-30T17:58:56.989Z,83.20
2023-01-30T18:01:24.656Z,82.80
2023-01-30T18:03:52.392Z,82.52
2023-01-30T18:06:21.347Z,82.11
2023-01-30T18:08:49.339Z,82.07
2023-01-30T18:11:17.473Z,81.60
2023-01-30T18:13:47.864Z,81.88
2023-01-30T18:16:24.698Z,81.35
2023-01-30T18:18:52.834Z,81.13
2023-01-30T18:21:22.375Z,81.20
2023-01-30T18:23:50.472Z,80.75
2023-01-30T18:26:18.676Z,80.65
2023-01-30T18:28:46.987Z,80.55
2023-01-30T18:31:16.452Z,80.64
2023-01-30T18:33:47.560Z,80.19
2023-01-30T18:36:17.125Z,80.09
2023-01-30T18:38:45.083Z,79.95
2023-01-30T18:41:14.065Z,79.98
2023-01-30T18:43:42.802Z,80.27
2023-01-30T18:46:12.396Z,79.71
2023-01-30T18:48:41.598Z,79.64
2023-01-30T18:51:12.212Z,79.37
2023-01-30T18:53:39.912Z,79.18
2023-01-30T18:56:15.293Z,78.88
2023-01-30T18:58:45.005Z,77.83
2023-01-30T19:01:14.681Z,78.19
2023-01-30T19:03:42.554Z,77.91
2023-01-30T19:06:11.874Z,77.55
2023-01-30T19:08:42.513Z,77.49
2023-01-30T19:11:33.862Z,77.28
2023-01-30T19:14:01.630Z,77.20
2023-01-30T19:16:30.166Z,76.86
2023-01-30T19:18:57.953Z,77.16
2023-01-30T19:21:26.069Z,77.40
2023-01-30T19:23:54.124Z,77.13
2023-01-30T19:26:22.437Z,77.54
2023-01-30T19:28:50.497Z,76.81
2023-01-30T19:31:19.992Z,77.07
2023-01-30T19:33:52.485Z,77.32
2023-01-30T19:36:21.541Z,76.76
2023-01-30T19:38:49.815Z,76.87
2023-01-30T19:41:27.966Z,77.34
2023-01-30T19:43:56.160Z,77.22
2023-01-30T19:46:28.984Z,77.00
2023-01-30T19:48:57.455Z,77.21
2023-01-30T19:51:29.684Z,76.95
2023-01-30T19:54:00.744Z,77.45
2023-01-30T19:56:29.007Z,77.23
2023-01-30T19:58:58.489Z,77.25
2023-01-30T20:01:29.794Z,77.26
2023-01-30T20:03:57.769Z,77.43
2023-01-30T20:06:26.948Z,77.33
2023-01-30T20:08:56.664Z,77.81
2023-01-30T20:11:24.296Z,78.01
2023-01-30T20:13:52.249Z,77.69
2023-01-30T20:16:25.478Z,77.56
2023-01-30T20:18:55.709Z,77.49
2023-01-30T20:21:23.655Z,77.07
2023-01-30T20:23:51.645Z,77.27
2023-01-30T20:26:27.671Z,77.58
2023-01-30T20:28:55.489Z,77.49
2023-01-30T20:31:30.042Z,77.15
2023-01-30T20:33:57.983Z,77.86
2023-01-30T20:36:26.639Z,77.89
2023-01-30T20:38:55.609Z,77.75
2023-01-30T20:41:25.430Z,77.79
2023-01-30T20:43:54.517Z,78.28
2023-01-30T20:46:32.243Z,77.37
2023-01-30T20:49:03.533Z,75.79
2023-01-30T20:51:32.403Z,74.58
2023-01-30T20:54:01.676Z,75.15
2023-01-30T20:56:40.218Z,75.15
2023-01-30T20:59:08.038Z,75.22
2023-01-30T21:01:35.997Z,74.86
2023-01-30T21:04:08.353Z,75.01
2023-01-30T21:06:42.675Z,75.45
2023-01-30T21:09:17.936Z,75.43
2023-01-30T21:11:45.782Z,75.70
2023-01-30T21:14:14.764Z,75.26
2023-01-30T21:16:42.460Z,75.52
2023-01-30T21:19:14.231Z,76.29
2023-01-30T21:21:50.958Z,75.86
2023-01-30T21:24:27.769Z,76.22
2023-01-30T21:26:56.087Z,76.63
2023-01-30T21:29:24.879Z,76.66
2023-01-30T21:31:52.786Z,76.64
2023-01-30T21:34:20.458Z,76.98
2023-01-30T21:37:08.055Z,76.74
2023-01-30T21:39:54.138Z,77.18
2023-01-30T21:42:40.499Z,76.97
2023-01-30T21:45:08.643Z,76.93
2023-01-30T21:47:37.020Z,77.26
2023-01-30T21:50:05.195Z,76.99
2023-01-30T21:52:33.553Z,77.40
2023-01-30T21:55:01.231Z,77.86
2023-01-30T21:57:29.126Z,77.52
2023-01-30T21:59:57.022Z,77.69
2023-01-30T22:02:24.613Z,77.62
2023-01-30T22:04:52.397Z,77.74
2023-01-30T22:07:20.008Z,76.58
2023-01-30T22:09:49.016Z,76.92
2023-01-30T22:12:16.860Z,76.09
2023-01-30T22:14:44.754Z,75.68
2023-01-30T22:17:13.369Z,75.73
2023-01-30T22:19:41.478Z,75.87
2023-01-30T22:22:09.085Z,76.09
2023-01-30T22:24:38.619Z,76.05
2023-01-30T22:27:06.340Z,76.57
2023-01-30T22:29:35.366Z,76.20
2023-01-30T22:32:03.156Z,76.26
2023-01-30T22:34:31.388Z,76.24
2023-01-30T22:36:59.092Z,76.46
2023-01-30T22:39:26.962Z,76.06
2023-01-30T22:41:55.004Z,76.44
2023-01-30T22:44:23.303Z,75.89
2023-01-30T22:46:52.335Z,75.78
2023-01-30T22:49:22.900Z,75.79
2023-01-30T22:51:50.719Z,75.64
2023-01-30T22:54:18.952Z,76.26
2023-01-30T22:56:48.618Z,75.85
2023-01-30T22:59:16.625Z,76.05
2023-01-30T23:01:48.341Z,75.57
2023-01-30T23:04:17.707Z,75.72
2023-01-30T23:06:45.379Z,75.99
2023-01-30T23:09:18.018Z,76.00
2023-01-30T23:12:09.756Z,75.82
2023-01-30T23:14:38.131Z,76.46
2023-01-30T23:17:26.271Z,76.11
2023-01-30T23:19:54.734Z,76.11
2023-01-30T23:22:22.460Z,75.90
2023-01-30T23:24:51.494Z,76.06
2023-01-30T23:27:19.919Z,76.11
2023-01-30T23:29:47.573Z,75.90
2023-01-30T23:32:15.291Z,76.60
2023-01-30T23:34:42.989Z,76.59
2023-01-30T23:37:10.709Z,76.12
2023-01-30T23:39:40.040Z,76.17
2023-01-30T23:42:07.654Z,76.47
2023-01-30T23:44:35.513Z,76.30
2023-01-30T23:47:03.130Z,76.28
2023-01-30T23:49:30.959Z,76.16
2023-01-30T23:51:58.618Z,76.22
2023-01-30T23:54:27.355Z,76.53
2023-01-30T23:56:55.525Z,76.06
2023-01-30T23:59:23.325Z,75.84
